sensor_id;sensor_type;location;lat;lon;timestamp;pressure;altitude;pressure_sealevel;temperature;humidity
42519;BME280;28147;47.520;18.920;2022-09-12T00:01:05;98260.75;;;15.00;86.05
42519;BME280;28147;47.520;18.920;2022-09-12T00:03:31;98252.47;;;15.06;85.48
42519;BME280;28147;47.520;18.920;2022-09-12T00:05:57;98259.72;;;15.06;85.53
42519;BME280;28147;47.520;18.920;2022-09-12T00:08:22;98261.84;;;14.94;85.85
42519;BME280;28147;47.520;18.920;2022-09-12T00:10:48;98254.88;;;14.93;85.86
42519;BME280;28147;47.520;18.920;2022-09-12T00:13:13;98246.56;;;14.89;86.58
42519;BME280;28147;47.520;18.920;2022-09-12T00:15:41;98253.25;;;14.81;86.71
42519;BME280;28147;47.520;18.920;2022-09-12T00:18:08;98263.97;;;14.87;86.68
42519;BME280;28147;47.520;18.920;2022-09-12T00:20:34;98262.09;;;14.82;86.62
42519;BME280;28147;47.520;18.920;2022-09-12T00:22:59;98267.97;;;14.84;86.90
42519;BME280;28147;47.520;18.920;2022-09-12T00:25:25;98261.28;;;14.81;86.93
42519;BME280;28147;47.520;18.920;2022-09-12T00:27:51;98267.69;;;14.75;87.27
42519;BME280;28147;47.520;18.920;2022-09-12T00:30:16;98266.09;;;14.84;86.67
42519;BME280;28147;47.520;18.920;2022-09-12T00:32:41;98272.81;;;14.92;86.20
42519;BME280;28147;47.520;18.920;2022-09-12T00:35:07;98270.41;;;14.91;85.88
42519;BME280;28147;47.520;18.920;2022-09-12T00:37:33;98266.38;;;14.88;86.26
42519;BME280;28147;47.520;18.920;2022-09-12T00:39:59;98273.63;;;14.93;85.96
42519;BME280;28147;47.520;18.920;2022-09-12T00:42:24;98275.25;;;14.94;85.92
42519;BME280;28147;47.520;18.920;2022-09-12T00:44:51;98274.97;;;14.90;86.17
42519;BME280;28147;47.520;18.920;2022-09-12T00:47:21;98260.22;;;14.88;86.78
42519;BME280;28147;47.520;18.920;2022-09-12T00:49:59;98272.53;;;14.78;87.42
42519;BME280;28147;47.520;18.920;2022-09-12T00:52:33;98270.09;;;14.77;87.59
42519;BME280;28147;47.520;18.920;2022-09-12T00:55:12;98270.91;;;14.77;87.92
42519;BME280;28147;47.520;18.920;2022-09-12T00:57:52;98266.88;;;14.80;87.33
42519;BME280;28147;47.520;18.920;2022-09-12T01:00:21;98270.66;;;14.84;87.94
42519;BME280;28147;47.520;18.920;2022-09-12T01:02:55;98263.38;;;14.64;88.23
42519;BME280;28147;47.520;18.920;2022-09-12T01:05:22;98260.63;;;14.54;88.52
42519;BME280;28147;47.520;18.920;2022-09-12T01:07:49;98259.84;;;14.53;88.78
42519;BME280;28147;47.520;18.920;2022-09-12T01:10:16;98274.06;;;14.59;88.64
42519;BME280;28147;47.520;18.920;2022-09-12T01:12:42;98277.84;;;14.63;88.22
42519;BME280;28147;47.520;18.920;2022-09-12T01:15:08;98274.66;;;14.76;87.06
42519;BME280;28147;47.520;18.920;2022-09-12T01:17:50;98276.00;;;14.74;86.80
42519;BME280;28147;47.520;18.920;2022-09-12T01:23:28;98287.00;;;14.77;86.39
42519;BME280;28147;47.520;18.920;2022-09-12T01:31:33;98265.25;;;14.64;89.12
42519;BME280;28147;47.520;18.920;2022-09-12T01:39:26;98278.63;;;14.58;89.61
42519;BME280;28147;47.520;18.920;2022-09-12T01:42:15;98275.09;;;14.53;88.97
42519;BME280;28147;47.520;18.920;2022-09-12T01:44:49;98276.25;;;14.67;88.75
42519;BME280;28147;47.520;18.920;2022-09-12T01:47:29;98273.00;;;14.60;88.09
42519;BME280;28147;47.520;18.920;2022-09-12T01:50:20;98274.34;;;14.63;88.00
42519;BME280;28147;47.520;18.920;2022-09-12T01:52:54;98279.97;;;14.61;88.15
42519;BME280;28147;47.520;18.920;2022-09-12T01:55:23;98272.47;;;14.63;88.38
42519;BME280;28147;47.520;18.920;2022-09-12T01:58:14;98280.50;;;14.63;88.46
42519;BME280;28147;47.520;18.920;2022-09-12T02:00:59;98277.56;;;14.59;88.76
42519;BME280;28147;47.520;18.920;2022-09-12T02:03:39;98276.75;;;14.64;88.56
42519;BME280;28147;47.520;18.920;2022-09-12T02:06:18;98271.69;;;14.68;88.81
42519;BME280;28147;47.520;18.920;2022-09-12T02:08:50;98276.75;;;14.59;89.53
42519;BME280;28147;47.520;18.920;2022-09-12T02:11:17;98275.63;;;14.50;90.04
42519;BME280;28147;47.520;18.920;2022-09-12T02:13:53;98282.31;;;14.47;90.68
42519;BME280;28147;47.520;18.920;2022-09-12T02:16:57;98270.50;;;14.48;90.94
42519;BME280;28147;47.520;18.920;2022-09-12T02:19:31;98278.88;;;14.62;90.32
42519;BME280;28147;47.520;18.920;2022-09-12T02:22:01;98283.16;;;14.53;91.03
42519;BME280;28147;47.520;18.920;2022-09-12T02:24:33;98280.47;;;14.58;91.05
42519;BME280;28147;47.520;18.920;2022-09-12T02:27:20;98283.31;;;14.36;92.57
42519;BME280;28147;47.520;18.920;2022-09-12T02:29:48;98277.75;;;14.48;92.21
42519;BME280;28147;47.520;18.920;2022-09-12T02:32:28;98282.31;;;14.47;92.45
42519;BME280;28147;47.520;18.920;2022-09-12T02:35:05;98291.91;;;14.43;93.39
42519;BME280;28147;47.520;18.920;2022-09-12T02:38:19;98286.59;;;14.48;93.77
42519;BME280;28147;47.520;18.920;2022-09-12T02:40:21;98284.16;;;14.47;93.75
42519;BME280;28147;47.520;18.920;2022-09-12T02:42:48;98274.59;;;14.56;93.25
42519;BME280;28147;47.520;18.920;2022-09-12T02:45:14;98281.31;;;14.58;93.22
42519;BME280;28147;47.520;18.920;2022-09-12T02:47:47;98281.75;;;14.45;93.74
42519;BME280;28147;47.520;18.920;2022-09-12T02:50:13;98286.59;;;14.48;93.37
42519;BME280;28147;47.520;18.920;2022-09-12T02:52:39;98290.09;;;14.54;92.94
42519;BME280;28147;47.520;18.920;2022-09-12T02:55:06;98278.06;;;14.51;92.09
42519;BME280;28147;47.520;18.920;2022-09-12T02:57:35;98279.88;;;14.46;92.10
42519;BME280;28147;47.520;18.920;2022-09-12T03:00:01;98275.81;;;14.43;91.78
42519;BME280;28147;47.520;18.920;2022-09-12T03:05:16;98282.47;;;14.30;92.47
42519;BME280;28147;47.520;18.920;2022-09-12T03:16:44;98291.31;;;14.31;92.09
42519;BME280;28147;47.520;18.920;2022-09-12T03:22:17;98270.16;;;14.29;91.73
42519;BME280;28147;47.520;18.920;2022-09-12T03:25:14;98290.44;;;14.20;92.43
42519;BME280;28147;47.520;18.920;2022-09-12T03:27:42;98287.44;;;14.06;93.02
42519;BME280;28147;47.520;18.920;2022-09-12T03:30:09;98296.50;;;14.00;93.35
42519;BME280;28147;47.520;18.920;2022-09-12T03:32:41;98304.81;;;14.04;92.65
42519;BME280;28147;47.520;18.920;2022-09-12T03:35:07;98300.25;;;14.04;92.95
42519;BME280;28147;47.520;18.920;2022-09-12T03:37:33;98300.03;;;14.06;92.97
42519;BME280;28147;47.520;18.920;2022-09-12T03:39:59;98299.66;;;13.92;93.53
42519;BME280;28147;47.520;18.920;2022-09-12T03:42:25;98299.38;;;13.94;93.63
42519;BME280;28147;47.520;18.920;2022-09-12T03:44:50;98297.88;;;14.08;92.95
42519;BME280;28147;47.520;18.920;2022-09-12T03:47:15;98303.78;;;14.10;92.91
42519;BME280;28147;47.520;18.920;2022-09-12T03:49:41;98295.41;;;13.96;93.06
42519;BME280;28147;47.520;18.920;2022-09-12T03:52:06;98302.13;;;13.99;93.10
42519;BME280;28147;47.520;18.920;2022-09-12T03:54:31;98295.66;;;13.95;93.43
42519;BME280;28147;47.520;18.920;2022-09-12T03:56:57;98301.63;;;14.07;92.33
42519;BME280;28147;47.520;18.920;2022-09-12T03:59:22;98311.19;;;13.98;93.22
42519;BME280;28147;47.520;18.920;2022-09-12T04:01:48;98303.69;;;13.95;92.70
42519;BME280;28147;47.520;18.920;2022-09-12T04:04:13;98311.94;;;13.88;93.49
42519;BME280;28147;47.520;18.920;2022-09-12T04:06:38;98311.78;;;14.05;92.56
42519;BME280;28147;47.520;18.920;2022-09-12T04:09:04;98303.34;;;13.86;92.70
42519;BME280;28147;47.520;18.920;2022-09-12T04:11:29;98304.19;;;13.86;92.62
42519;BME280;28147;47.520;18.920;2022-09-12T04:13:56;98298.34;;;13.95;91.76
42519;BME280;28147;47.520;18.920;2022-09-12T04:16:21;98304.22;;;13.97;91.44
42519;BME280;28147;47.520;18.920;2022-09-12T04:18:47;98303.75;;;14.05;90.64
42519;BME280;28147;47.520;18.920;2022-09-12T04:21:15;98303.31;;;14.18;90.39
42519;BME280;28147;47.520;18.920;2022-09-12T04:23:41;98301.69;;;14.17;90.57
42519;BME280;28147;47.520;18.920;2022-09-12T04:26:08;98310.47;;;14.07;90.82
42519;BME280;28147;47.520;18.920;2022-09-12T04:28:35;98302.22;;;14.19;89.80
42519;BME280;28147;47.520;18.920;2022-09-12T04:31:06;98303.00;;;14.09;89.98
42519;BME280;28147;47.520;18.920;2022-09-12T04:33:34;98293.81;;;14.00;90.29
42519;BME280;28147;47.520;18.920;2022-09-12T04:36:08;98302.22;;;14.19;89.32
42519;BME280;28147;47.520;18.920;2022-09-12T04:38:35;98290.44;;;14.20;89.76
42519;BME280;28147;47.520;18.920;2022-09-12T04:43:36;98286.19;;;14.24;89.23
42519;BME280;28147;47.520;18.920;2022-09-12T04:46:08;98284.81;;;14.17;89.66
42519;BME280;28147;47.520;18.920;2022-09-12T04:48:34;98290.66;;;14.51;87.70
42519;BME280;28147;47.520;18.920;2022-09-12T04:51:11;98292.03;;;14.64;86.69
42519;BME280;28147;47.520;18.920;2022-09-12T04:53:38;98293.34;;;14.56;86.24
42519;BME280;28147;47.520;18.920;2022-09-12T04:56:05;98303.59;;;14.74;85.19
42519;BME280;28147;47.520;18.920;2022-09-12T04:58:32;98305.25;;;14.86;84.85
42519;BME280;28147;47.520;18.920;2022-09-12T05:01:24;98300.13;;;14.79;85.34
42519;BME280;28147;47.520;18.920;2022-09-12T05:03:50;98299.59;;;14.82;85.54
42519;BME280;28147;47.520;18.920;2022-09-12T05:06:21;98302.84;;;14.94;84.39
42519;BME280;28147;47.520;18.920;2022-09-12T05:08:46;98313.06;;;15.02;84.21
42519;BME280;28147;47.520;18.920;2022-09-12T05:11:15;98307.16;;;15.00;84.28
42519;BME280;28147;47.520;18.920;2022-09-12T05:13:40;98323.56;;;15.24;83.42
42519;BME280;28147;47.520;18.920;2022-09-12T05:16:08;98319.25;;;15.13;82.78
42519;BME280;28147;47.520;18.920;2022-09-12T05:18:35;98325.72;;;15.32;82.17
42519;BME280;28147;47.520;18.920;2022-09-12T05:21:02;98336.44;;;15.32;81.92
42519;BME280;28147;47.520;18.920;2022-09-12T05:23:28;98340.22;;;15.47;81.85
42519;BME280;28147;47.520;18.920;2022-09-12T05:25:55;98349.94;;;15.68;81.33
42519;BME280;28147;47.520;18.920;2022-09-12T05:28:23;98350.72;;;15.79;80.68
42519;BME280;28147;47.520;18.920;2022-09-12T05:33:27;98356.91;;;16.10;79.30
42519;BME280;28147;47.520;18.920;2022-09-12T05:35:52;98352.88;;;16.23;77.79
42519;BME280;28147;47.520;18.920;2022-09-12T05:38:18;98349.91;;;16.29;76.85
42519;BME280;28147;47.520;18.920;2022-09-12T05:40:43;98362.28;;;16.15;77.75
42519;BME280;28147;47.520;18.920;2022-09-12T05:43:09;98356.63;;;16.12;78.10
42519;BME280;28147;47.520;18.920;2022-09-12T05:45:37;98350.69;;;16.30;77.29
42519;BME280;28147;47.520;18.920;2022-09-12T05:48:03;98353.16;;;16.01;78.24
42519;BME280;28147;47.520;18.920;2022-09-12T05:50:28;98351.81;;;15.88;78.35
42519;BME280;28147;47.520;18.920;2022-09-12T05:52:55;98361.75;;;16.18;78.23
42519;BME280;28147;47.520;18.920;2022-09-12T05:55:20;98369.75;;;16.28;76.86
42519;BME280;28147;47.520;18.920;2022-09-12T05:57:47;98363.31;;;16.45;76.88
42519;BME280;28147;47.520;18.920;2022-09-12T06:00:13;98366.44;;;16.77;76.26
42519;BME280;28147;47.520;18.920;2022-09-12T06:02:39;98366.75;;;16.61;75.78
42519;BME280;28147;47.520;18.920;2022-09-12T06:05:04;98362.72;;;16.58;75.75
42519;BME280;28147;47.520;18.920;2022-09-12T06:07:30;98357.84;;;16.65;75.26
42519;BME280;28147;47.520;18.920;2022-09-12T06:09:57;98361.63;;;16.64;75.38
42519;BME280;28147;47.520;18.920;2022-09-12T06:12:23;98365.63;;;16.72;76.04
42519;BME280;28147;47.520;18.920;2022-09-12T06:14:51;98360.50;;;16.86;75.56
42519;BME280;28147;47.520;18.920;2022-09-12T06:17:17;98364.03;;;16.66;75.75
42519;BME280;28147;47.520;18.920;2022-09-12T06:19:43;98370.72;;;16.84;75.37
42519;BME280;28147;47.520;18.920;2022-09-12T06:22:09;98362.41;;;16.80;75.08
42519;BME280;28147;47.520;18.920;2022-09-12T06:24:35;98385.78;;;16.90;74.31
42519;BME280;28147;47.520;18.920;2022-09-12T06:27:00;98386.69;;;17.24;74.19
42519;BME280;28147;47.520;18.920;2022-09-12T06:29:27;98369.84;;;17.03;73.54
42519;BME280;28147;47.520;18.920;2022-09-12T06:31:53;98377.75;;;17.39;72.17
42519;BME280;28147;47.520;18.920;2022-09-12T06:34:19;98380.88;;;16.97;73.09
42519;BME280;28147;47.520;18.920;2022-09-12T06:36:46;98387.22;;;17.26;72.66
42519;BME280;28147;47.520;18.920;2022-09-12T06:39:14;98379.28;;;17.45;72.92
42519;BME280;28147;47.520;18.920;2022-09-12T06:41:40;98387.06;;;17.52;72.54
42519;BME280;28147;47.520;18.920;2022-09-12T06:44:06;98387.56;;;17.59;72.29
42519;BME280;28147;47.520;18.920;2022-09-12T06:46:32;98386.47;;;17.65;72.41
42519;BME280;28147;47.520;18.920;2022-09-12T06:48:58;98381.69;;;17.52;70.66
42519;BME280;28147;47.520;18.920;2022-09-12T06:51:25;98392.91;;;17.64;71.06
42519;BME280;28147;47.520;18.920;2022-09-12T06:53:53;98388.00;;;17.32;71.41
42519;BME280;28147;47.520;18.920;2022-09-12T06:56:21;98386.44;;;17.21;71.50
42519;BME280;28147;47.520;18.920;2022-09-12T06:58:49;98383.63;;;17.46;71.27
42519;BME280;28147;47.520;18.920;2022-09-12T07:01:22;98384.09;;;17.54;71.22
42519;BME280;28147;47.520;18.920;2022-09-12T07:03:50;98382.47;;;17.52;70.71
42519;BME280;28147;47.520;18.920;2022-09-12T07:06:18;98384.22;;;17.33;71.79
42519;BME280;28147;47.520;18.920;2022-09-12T07:08:45;98382.44;;;17.08;72.95
42519;BME280;28147;47.520;18.920;2022-09-12T07:11:19;98392.47;;;16.92;73.23
42519;BME280;28147;47.520;18.920;2022-09-12T07:13:46;98383.69;;;16.56;73.45
42519;BME280;28147;47.520;18.920;2022-09-12T07:16:13;98389.13;;;16.30;74.67
42519;BME280;28147;47.520;18.920;2022-09-12T07:18:39;98386.94;;;16.43;73.91
42519;BME280;28147;47.520;18.920;2022-09-12T07:21:07;98388.00;;;16.52;75.38
42519;BME280;28147;47.520;18.920;2022-09-12T07:23:34;98386.09;;;16.58;75.80
42519;BME280;28147;47.520;18.920;2022-09-12T07:26:00;98388.00;;;16.47;74.58
42519;BME280;28147;47.520;18.920;2022-09-12T07:28:27;98398.09;;;17.01;72.47
42519;BME280;28147;47.520;18.920;2022-09-12T07:30:54;98392.25;;;17.38;71.15
42519;BME280;28147;47.520;18.920;2022-09-12T07:33:27;98379.34;;;17.40;69.77
42519;BME280;28147;47.520;18.920;2022-09-12T07:35:53;98392.31;;;17.72;69.61
42519;BME280;28147;47.520;18.920;2022-09-12T07:38:21;98387.16;;;18.15;68.25
42519;BME280;28147;47.520;18.920;2022-09-12T07:40:47;98386.16;;;18.06;65.58
42519;BME280;28147;47.520;18.920;2022-09-12T07:43:12;98393.06;;;18.17;65.04
42519;BME280;28147;47.520;18.920;2022-09-12T07:45:37;98396.50;;;18.52;64.83
42519;BME280;28147;47.520;18.920;2022-09-12T07:48:06;98395.06;;;18.89;63.89
42519;BME280;28147;47.520;18.920;2022-09-12T07:50:32;98402.41;;;19.07;60.22
42519;BME280;28147;47.520;18.920;2022-09-12T07:52:57;98393.00;;;19.24;60.56
42519;BME280;28147;47.520;18.920;2022-09-12T07:55:23;98393.25;;;19.27;59.74
42519;BME280;28147;47.520;18.920;2022-09-12T07:57:49;98393.13;;;19.56;59.92
42519;BME280;28147;47.520;18.920;2022-09-12T08:00:15;98397.00;;;19.69;59.35
42519;BME280;28147;47.520;18.920;2022-09-12T08:02:41;98385.53;;;19.77;59.00
42519;BME280;28147;47.520;18.920;2022-09-12T08:05:07;98394.78;;;20.09;58.33
42519;BME280;28147;47.520;18.920;2022-09-12T08:07:32;98403.56;;;20.14;57.06
42519;BME280;28147;47.520;18.920;2022-09-12T08:09:58;98401.81;;;19.91;57.48
42519;BME280;28147;47.520;18.920;2022-09-12T08:12:26;98406.84;;;19.60;57.39
42519;BME280;28147;47.520;18.920;2022-09-12T08:14:52;98398.69;;;19.03;59.51
42519;BME280;28147;47.520;18.920;2022-09-12T08:17:17;98406.06;;;19.16;60.09
42519;BME280;28147;47.520;18.920;2022-09-12T08:19:43;98397.06;;;19.83;59.54
42519;BME280;28147;47.520;18.920;2022-09-12T08:22:09;98391.97;;;19.01;60.93
42519;BME280;28147;47.520;18.920;2022-09-12T08:24:35;98401.28;;;20.08;60.69
42519;BME280;28147;47.520;18.920;2022-09-12T08:27:01;98396.75;;;19.84;59.62
42519;BME280;28147;47.520;18.920;2022-09-12T08:29:26;98397.03;;;20.34;57.92
42519;BME280;28147;47.520;18.920;2022-09-12T08:31:52;98396.94;;;20.39;58.07
42519;BME280;28147;47.520;18.920;2022-09-12T08:34:17;98392.34;;;20.40;57.07
42519;BME280;28147;47.520;18.920;2022-09-12T08:36:43;98387.59;;;20.92;55.62
42519;BME280;28147;47.520;18.920;2022-09-12T08:39:11;98384.47;;;21.62;55.40
42519;BME280;28147;47.520;18.920;2022-09-12T08:41:46;98392.44;;;21.81;53.27
42519;BME280;28147;47.520;18.920;2022-09-12T08:53:15;98377.06;;;22.13;50.86
42519;BME280;28147;47.520;18.920;2022-09-12T08:55:45;98377.00;;;22.58;51.01
42519;BME280;28147;47.520;18.920;2022-09-12T08:58:12;98380.44;;;22.19;51.32
42519;BME280;28147;47.520;18.920;2022-09-12T09:01:06;98369.91;;;21.36;51.14
42519;BME280;28147;47.520;18.920;2022-09-12T09:03:57;98379.13;;;21.21;51.28
42519;BME280;28147;47.520;18.920;2022-09-12T09:09:24;98369.97;;;22.26;51.54
42519;BME280;28147;47.520;18.920;2022-09-12T09:11:55;98371.47;;;22.41;49.87
42519;BME280;28147;47.520;18.920;2022-09-12T09:14:38;98367.84;;;22.54;48.58
42519;BME280;28147;47.520;18.920;2022-09-12T09:17:36;98375.66;;;22.47;48.94
42519;BME280;28147;47.520;18.920;2022-09-12T09:25:58;98378.13;;;23.05;49.34
42519;BME280;28147;47.520;18.920;2022-09-12T09:28:51;98377.81;;;22.05;46.76
42519;BME280;28147;47.520;18.920;2022-09-12T09:31:22;98392.38;;;21.23;49.48
42519;BME280;28147;47.520;18.920;2022-09-12T09:33:50;98387.78;;;20.54;52.29
42519;BME280;28147;47.520;18.920;2022-09-12T09:44:45;98415.28;;;19.34;59.70
42519;BME280;28147;47.520;18.920;2022-09-12T09:47:12;98407.34;;;19.81;59.44
42519;BME280;28147;47.520;18.920;2022-09-12T09:49:38;98407.34;;;19.81;60.30
42519;BME280;28147;47.520;18.920;2022-09-12T09:52:06;98401.91;;;19.86;59.49
42519;BME280;28147;47.520;18.920;2022-09-12T09:54:41;98395.09;;;20.54;58.74
42519;BME280;28147;47.520;18.920;2022-09-12T10:00:28;98379.41;;;21.47;54.60
42519;BME280;28147;47.520;18.920;2022-09-12T10:05:52;98389.91;;;19.73;58.36
42519;BME280;28147;47.520;18.920;2022-09-12T10:08:25;98382.91;;;19.53;59.54
42519;BME280;28147;47.520;18.920;2022-09-12T10:13:52;98390.91;;;19.39;60.92
42519;BME280;28147;47.520;18.920;2022-09-12T10:16:34;98392.22;;;19.23;61.30
42519;BME280;28147;47.520;18.920;2022-09-12T10:19:20;98385.91;;;19.52;60.22
42519;BME280;28147;47.520;18.920;2022-09-12T10:21:51;98381.00;;;19.73;59.81
42519;BME280;28147;47.520;18.920;2022-09-12T10:24:23;98389.25;;;20.00;60.06
42519;BME280;28147;47.520;18.920;2022-09-12T10:27:08;98374.63;;;20.01;60.38
42519;BME280;28147;47.520;18.920;2022-09-12T10:29:43;98378.59;;;19.90;59.74
42519;BME280;28147;47.520;18.920;2022-09-12T10:34:52;98377.25;;;20.06;58.55
42519;BME280;28147;47.520;18.920;2022-09-12T10:37:37;98375.69;;;20.33;58.08
42519;BME280;28147;47.520;18.920;2022-09-12T10:40:05;98378.19;;;20.29;58.75
42519;BME280;28147;47.520;18.920;2022-09-12T10:47:58;98373.25;;;20.64;54.32
42519;BME280;28147;47.520;18.920;2022-09-12T10:50:28;98367.38;;;20.15;55.17
42519;BME280;28147;47.520;18.920;2022-09-12T10:53:24;98369.75;;;19.84;55.07
42519;BME280;28147;47.520;18.920;2022-09-12T10:56:09;98368.38;;;19.49;56.27
42519;BME280;28147;47.520;18.920;2022-09-12T11:10:31;98384.81;;;18.91;59.02
42519;BME280;28147;47.520;18.920;2022-09-12T11:22:33;98374.75;;;18.73;59.48
42519;BME280;28147;47.520;18.920;2022-09-12T11:30:07;98374.34;;;18.60;60.38
42519;BME280;28147;47.520;18.920;2022-09-12T11:35:22;98362.56;;;18.75;59.78
42519;BME280;28147;47.520;18.920;2022-09-12T11:46:39;98373.22;;;19.71;57.95
42519;BME280;28147;47.520;18.920;2022-09-12T11:56:46;98362.06;;;20.38;57.32
42519;BME280;28147;47.520;18.920;2022-09-12T11:59:30;98362.84;;;20.71;56.53
42519;BME280;28147;47.520;18.920;2022-09-12T12:01:58;98352.88;;;20.39;58.15
42519;BME280;28147;47.520;18.920;2022-09-12T12:04:28;98353.66;;;20.12;59.48
42519;BME280;28147;47.520;18.920;2022-09-12T12:07:06;98351.38;;;19.86;58.53
42519;BME280;28147;47.520;18.920;2022-09-12T12:09:33;98352.59;;;19.94;59.04
42519;BME280;28147;47.520;18.920;2022-09-12T12:12:04;98348.44;;;19.83;58.41
42519;BME280;28147;47.520;18.920;2022-09-12T12:14:41;98350.78;;;19.89;59.25
42519;BME280;28147;47.520;18.920;2022-09-12T12:17:20;98337.50;;;20.81;57.31
42519;BME280;28147;47.520;18.920;2022-09-12T12:19:56;98334.75;;;20.95;54.30
42519;BME280;28147;47.520;18.920;2022-09-12T12:22:24;98338.63;;;21.16;53.13
42519;BME280;28147;47.520;18.920;2022-09-12T12:24:55;98326.22;;;21.15;52.72
42519;BME280;28147;47.520;18.920;2022-09-12T12:27:44;98325.97;;;21.39;52.56
42519;BME280;28147;47.520;18.920;2022-09-12T12:36:04;98343.66;;;21.23;48.67
42519;BME280;28147;47.520;18.920;2022-09-12T12:38:30;98339.28;;;20.72;49.49
42519;BME280;28147;47.520;18.920;2022-09-12T12:43:40;98320.25;;;20.63;51.16
42519;BME280;28147;47.520;18.920;2022-09-12T12:46:08;98313.94;;;20.95;51.23
42519;BME280;28147;47.520;18.920;2022-09-12T12:51:36;98332.97;;;21.04;50.35
42519;BME280;28147;47.520;18.920;2022-09-12T12:54:24;98315.44;;;20.87;49.31
42519;BME280;28147;47.520;18.920;2022-09-12T12:57:04;98305.63;;;20.78;50.00
42519;BME280;28147;47.520;18.920;2022-09-12T12:59:30;98317.38;;;21.23;50.56
42519;BME280;28147;47.520;18.920;2022-09-12T13:01:57;98317.59;;;21.13;50.76
42519;BME280;28147;47.520;18.920;2022-09-12T13:04:27;98317.38;;;21.23;50.11
42519;BME280;28147;47.520;18.920;2022-09-12T13:07:01;98318.56;;;21.17;51.23
42519;BME280;28147;47.520;18.920;2022-09-12T13:12:04;98315.59;;;21.05;51.83
42519;BME280;28147;47.520;18.920;2022-09-12T13:17:12;98314.72;;;20.96;51.42
42519;BME280;28147;47.520;18.920;2022-09-12T13:19:39;98304.84;;;20.63;51.20
42519;BME280;28147;47.520;18.920;2022-09-12T13:22:07;98314.84;;;20.77;52.23
42519;BME280;28147;47.520;18.920;2022-09-12T13:24:41;98304.72;;;20.82;50.95
42519;BME280;28147;47.520;18.920;2022-09-12T13:27:39;98310.03;;;20.60;51.72
42519;BME280;28147;47.520;18.920;2022-09-12T13:30:20;98301.31;;;20.49;50.78
42519;BME280;28147;47.520;18.920;2022-09-12T13:32:45;98303.69;;;20.37;50.78
42519;BME280;28147;47.520;18.920;2022-09-12T13:36:06;98304.00;;;20.22;49.96
42519;BME280;28147;47.520;18.920;2022-09-12T13:38:56;98309.09;;;20.37;49.16
42519;BME280;28147;47.520;18.920;2022-09-12T13:43:41;98293.81;;;20.74;48.83
42519;BME280;28147;47.520;18.920;2022-09-12T13:46:13;98303.72;;;20.64;50.26
42519;BME280;28147;47.520;18.920;2022-09-12T13:48:41;98299.03;;;20.56;48.74
42519;BME280;28147;47.520;18.920;2022-09-12T13:51:20;98296.09;;;20.39;48.89
42519;BME280;28147;47.520;18.920;2022-09-12T13:53:47;98294.19;;;20.26;50.15
42519;BME280;28147;47.520;18.920;2022-09-12T13:56:17;98299.38;;;20.08;50.16
42519;BME280;28147;47.520;18.920;2022-09-12T13:58:54;98306.59;;;20.13;49.26
42519;BME280;28147;47.520;18.920;2022-09-12T14:01:40;98315.75;;;19.98;50.62
42519;BME280;28147;47.520;18.920;2022-09-12T14:04:17;98304.16;;;19.98;51.14
42519;BME280;28147;47.520;18.920;2022-09-12T14:07:09;98303.38;;;19.97;51.13
42519;BME280;28147;47.520;18.920;2022-09-12T14:09:40;98309.63;;;19.92;51.57
42519;BME280;28147;47.520;18.920;2022-09-12T14:12:31;98315.28;;;19.77;52.43
42519;BME280;28147;47.520;18.920;2022-09-12T14:14:59;98317.19;;;19.77;51.87
42519;BME280;28147;47.520;18.920;2022-09-12T14:17:35;98320.41;;;19.79;52.71
42519;BME280;28147;47.520;18.920;2022-09-12T14:20:13;98310.63;;;19.83;52.62
42519;BME280;28147;47.520;18.920;2022-09-12T14:22:39;98315.91;;;19.55;52.30
42519;BME280;28147;47.520;18.920;2022-09-12T14:25:06;98314.28;;;19.54;53.88
42519;BME280;28147;47.520;18.920;2022-09-12T14:27:39;98317.75;;;19.41;53.11
42519;BME280;28147;47.520;18.920;2022-09-12T14:30:23;98312.84;;;19.24;51.50
42519;BME280;28147;47.520;18.920;2022-09-12T14:35:42;98309.00;;;19.11;51.03
42519;BME280;28147;47.520;18.920;2022-09-12T14:38:22;98312.25;;;19.08;51.40
42519;BME280;28147;47.520;18.920;2022-09-12T14:40:50;98319.88;;;19.25;51.13
42519;BME280;28147;47.520;18.920;2022-09-12T14:45:51;98319.22;;;19.33;48.21
42519;BME280;28147;47.520;18.920;2022-09-12T14:48:18;98313.34;;;19.45;48.44
42519;BME280;28147;47.520;18.920;2022-09-12T14:50:48;98313.44;;;19.40;47.13
42519;BME280;28147;47.520;18.920;2022-09-12T14:55:52;98304.16;;;19.46;47.38
42519;BME280;28147;47.520;18.920;2022-09-12T14:58:24;98304.72;;;19.43;47.94
42519;BME280;28147;47.520;18.920;2022-09-12T15:06:01;98299.50;;;19.33;48.38
42519;BME280;28147;47.520;18.920;2022-09-12T15:08:27;98299.00;;;19.31;48.75
42519;BME280;28147;47.520;18.920;2022-09-12T15:10:54;98293.09;;;19.29;48.92
42519;BME280;28147;47.520;18.920;2022-09-12T15:13:27;98306.50;;;19.34;49.41
42519;BME280;28147;47.520;18.920;2022-09-12T15:15:59;98300.53;;;19.18;49.12
42519;BME280;28147;47.520;18.920;2022-09-12T15:18:26;98309.22;;;19.15;48.41
42519;BME280;28147;47.520;18.920;2022-09-12T15:21:01;98303.22;;;18.99;48.37
42519;BME280;28147;47.520;18.920;2022-09-12T15:23:46;98303.81;;;18.96;48.87
42519;BME280;28147;47.520;18.920;2022-09-12T15:26:17;98297.88;;;18.94;48.56
42519;BME280;28147;47.520;18.920;2022-09-12T15:28:44;98305.47;;;18.92;49.75
42519;BME280;28147;47.520;18.920;2022-09-12T15:33:52;98289.97;;;19.03;50.12
42519;BME280;28147;47.520;18.920;2022-09-12T15:36:19;98300.19;;;19.06;50.75
42519;BME280;28147;47.520;18.920;2022-09-12T15:38:45;98295.41;;;18.98;48.98
42519;BME280;28147;47.520;18.920;2022-09-12T15:41:15;98296.81;;;18.95;48.87
42519;BME280;28147;47.520;18.920;2022-09-12T15:43:41;98290.88;;;18.93;48.75
42519;BME280;28147;47.520;18.920;2022-09-12T15:46:09;98296.84;;;18.90;48.28